createdAt,value
2022-12-07T00:01:24.195Z,33.13
2022-12-07T00:03:53.909Z,32.28
2022-12-07T00:06:21.517Z,31.55
2022-12-07T00:08:49.196Z,32.65
2022-12-07T00:11:18.938Z,30.77
2022-12-07T00:13:46.591Z,31.30
2022-12-07T00:16:18.411Z,29.70
2022-12-07T00:18:46.284Z,27.95
2022-12-07T00:21:19.307Z,30.15
2022-12-07T00:23:48.456Z,31.15
2022-12-07T00:26:24.604Z,31.13
2022-12-07T00:28:54.340Z,31.60
2022-12-07T00:31:23.488Z,30.13
2022-12-07T00:33:50.592Z,29.67
2022-12-07T00:36:26.037Z,30.55
2022-12-07T00:38:55.447Z,30.40
2022-12-07T00:41:24.597Z,29.83
2022-12-07T00:43:52.235Z,29.88
2022-12-07T00:46:20.578Z,31.60
2022-12-07T00:48:48.541Z,30.73
2022-12-07T00:51:17.261Z,32.70
2022-12-07T00:53:44.279Z,32.28
2022-12-07T00:56:20.462Z,31.02
2022-12-07T00:58:59.089Z,32.22
2022-12-07T01:01:28.393Z,31.35
2022-12-07T01:03:55.180Z,30.52
2022-12-07T01:06:23.791Z,31.13
2022-12-07T01:08:51.002Z,32.33
2022-12-07T01:11:21.197Z,29.88
2022-12-07T01:13:50.255Z,30.85
2022-12-07T01:16:18.200Z,30.77
2022-12-07T01:18:48.566Z,31.85
2022-12-07T01:21:18.136Z,32.40
2022-12-07T01:23:45.297Z,33.25
2022-12-07T01:26:14.835Z,32.28
2022-12-07T01:28:42.230Z,32.80
2022-12-07T01:31:17.738Z,32.20
2022-12-07T01:33:49.844Z,32.88
2022-12-07T01:36:28.068Z,34.10
2022-12-07T01:39:00.588Z,33.70
2022-12-07T01:41:31.028Z,31.80
2022-12-07T01:44:11.960Z,32.50
2022-12-07T01:46:39.314Z,33.58
2022-12-07T01:49:09.600Z,30.25
2022-12-07T01:51:38.642Z,31.60
2022-12-07T01:54:05.444Z,32.88
2022-12-07T01:56:33.346Z,31.90
2022-12-07T01:59:01.681Z,32.95
2022-12-07T02:01:29.076Z,33.15
2022-12-07T02:03:56.259Z,30.65
2022-12-07T02:06:25.842Z,31.20
2022-12-07T02:08:53.315Z,33.13
2022-12-07T02:11:21.295Z,32.20
2022-12-07T02:13:48.717Z,34.28
2022-12-07T02:16:30.579Z,33.97
2022-12-07T02:19:26.697Z,33.95
2022-12-07T02:22:04.103Z,35.25
2022-12-07T02:24:58.596Z,35.78
2022-12-07T02:27:43.375Z,34.83
2022-12-07T02:30:13.410Z,33.10
2022-12-07T02:33:04.175Z,35.08
2022-12-07T02:35:41.179Z,34.78
2022-12-07T02:38:20.073Z,35.38
2022-12-07T02:41:01.591Z,34.22
2022-12-07T02:43:56.470Z,34.38
2022-12-07T02:46:30.991Z,32.97
2022-12-07T02:49:00.574Z,34.63
2022-12-07T02:51:31.683Z,34.90
2022-12-07T02:53:58.838Z,36.30
2022-12-07T02:56:47.080Z,34.10
2022-12-07T02:59:32.708Z,34.00
2022-12-07T03:02:08.481Z,35.92
2022-12-07T03:04:55.763Z,34.33
2022-12-07T03:08:06.457Z,36.05
2022-12-07T03:10:49.266Z,34.25
2022-12-07T03:13:31.648Z,35.28
2022-12-07T03:16:16.984Z,32.60
2022-12-07T03:18:50.220Z,34.67
2022-12-07T03:21:21.184Z,33.15
2022-12-07T03:23:52.427Z,33.35
2022-12-07T03:26:22.314Z,33.45
2022-12-07T03:28:55.426Z,33.72
2022-12-07T03:31:39.229Z,34.42
2022-12-07T03:34:34.959Z,34.83
2022-12-07T03:37:07.016Z,33.08
2022-12-07T03:39:47.241Z,34.13
2022-12-07T03:42:14.116Z,34.33
2022-12-07T03:44:42.134Z,34.53
2022-12-07T03:47:30.674Z,34.70
2022-12-07T03:50:22.729Z,33.50
2022-12-07T03:53:14.869Z,35.22
2022-12-07T03:55:45.429Z,33.90
2022-12-07T03:58:19.245Z,34.72
2022-12-07T04:00:46.547Z,35.72
2022-12-07T04:03:13.304Z,33.60
2022-12-07T04:05:40.632Z,35.35
2022-12-07T04:08:07.474Z,35.47
2022-12-07T04:10:34.239Z,35.28
2022-12-07T04:13:01.035Z,35.42
2022-12-07T04:15:28.083Z,35.95
2022-12-07T04:17:55.793Z,36.50
2022-12-07T04:20:22.804Z,36.55
2022-12-07T04:22:49.837Z,35.50
2022-12-07T04:25:16.680Z,34.88
2022-12-07T04:27:43.479Z,37.38
2022-12-07T04:30:10.752Z,39.05
2022-12-07T04:32:37.914Z,37.80
2022-12-07T04:35:05.638Z,39.28
2022-12-07T04:37:32.550Z,35.63
2022-12-07T04:39:59.567Z,37.75
2022-12-07T04:42:26.498Z,38.53
2022-12-07T04:44:53.300Z,37.92
2022-12-07T04:47:20.249Z,35.75
2022-12-07T04:49:47.007Z,37.92
2022-12-07T04:52:13.856Z,37.50
2022-12-07T04:54:40.628Z,38.40
2022-12-07T04:57:07.411Z,36.45
2022-12-07T04:59:34.136Z,37.65
2022-12-07T05:02:00.971Z,36.97
2022-12-07T05:04:27.839Z,37.55
2022-12-07T05:06:54.577Z,36.50
2022-12-07T05:09:21.400Z,35.65
2022-12-07T05:11:48.127Z,36.67
2022-12-07T05:14:20.680Z,36.97
2022-12-07T05:16:50.548Z,36.10
2022-12-07T05:19:18.681Z,32.83
2022-12-07T05:21:45.942Z,32.92
2022-12-07T05:24:14.603Z,34.83
2022-12-07T05:26:41.417Z,33.08
2022-12-07T05:29:08.728Z,36.00
2022-12-07T05:31:35.629Z,33.42
2022-12-07T05:34:02.960Z,33.38
2022-12-07T05:36:32.065Z,32.58
2022-12-07T05:38:59.372Z,32.00
2022-12-07T05:41:44.596Z,32.33
2022-12-07T05:44:11.354Z,33.33
2022-12-07T05:46:38.118Z,31.75
2022-12-07T05:49:04.885Z,32.42
2022-12-07T05:51:31.857Z,33.60
2022-12-07T05:53:58.657Z,33.35
2022-12-07T05:56:27.571Z,33.00
2022-12-07T05:59:13.264Z,32.83
2022-12-07T06:01:43.300Z,31.80
2022-12-07T06:04:10.031Z,30.30
2022-12-07T06:06:37.005Z,30.30
2022-12-07T06:09:05.527Z,32.25
2022-12-07T06:11:50.839Z,32.67
2022-12-07T06:14:17.562Z,31.83
2022-12-07T06:16:44.407Z,31.60
2022-12-07T06:19:11.269Z,32.10
2022-12-07T06:21:39.136Z,31.95
2022-12-07T06:24:06.579Z,32.10
2022-12-07T06:26:33.285Z,31.95
2022-12-07T06:29:00.187Z,32.47
2022-12-07T06:31:27.057Z,30.88
2022-12-07T06:34:08.284Z,31.83
2022-12-07T06:36:35.074Z,33.97
2022-12-07T06:39:02.133Z,33.55
2022-12-07T06:41:29.047Z,33.55
2022-12-07T06:43:56.569Z,34.40
2022-12-07T06:46:23.857Z,32.63
2022-12-07T06:48:50.796Z,33.45
2022-12-07T06:51:17.670Z,32.45
2022-12-07T06:53:44.543Z,31.45
2022-12-07T06:56:11.461Z,30.05
2022-12-07T06:58:38.385Z,31.30
2022-12-07T07:01:13.837Z,30.80
2022-12-07T07:03:40.945Z,31.27
2022-12-07T07:06:08.500Z,28.48
2022-12-07T07:08:36.335Z,27.25
2022-12-07T07:11:03.513Z,24.67
2022-12-07T07:13:30.598Z,24.35
2022-12-07T07:15:58.258Z,22.08
2022-12-07T07:18:25.064Z,20.63
2022-12-07T07:20:52.688Z,21.20
2022-12-07T07:23:20.361Z,21.52
2022-12-07T07:25:47.659Z,19.60
2022-12-07T07:28:15.073Z,22.33
2022-12-07T07:30:42.171Z,21.10
2022-12-07T07:33:09.027Z,20.67
2022-12-07T07:35:36.065Z,21.95
2022-12-07T07:38:04.180Z,21.70
2022-12-07T07:40:36.761Z,20.63
2022-12-07T07:43:03.929Z,22.30
2022-12-07T07:45:30.734Z,23.27
2022-12-07T07:47:57.585Z,24.98
2022-12-07T07:50:24.352Z,24.33
2022-12-07T07:52:52.220Z,25.55
2022-12-07T07:55:19.127Z,23.98
2022-12-07T07:57:51.219Z,26.08
2022-12-07T08:00:18.675Z,26.25
2022-12-07T08:02:46.903Z,28.52
2022-12-07T08:05:14.444Z,27.33
2022-12-07T08:07:41.390Z,28.00
2022-12-07T08:10:11.943Z,29.45
2022-12-07T08:13:00.201Z,30.25
2022-12-07T08:15:29.489Z,28.50
2022-12-07T08:17:56.299Z,29.70
2022-12-07T08:20:23.689Z,29.48
2022-12-07T08:22:51.588Z,27.95
2022-12-07T08:25:19.238Z,28.00
2022-12-07T08:27:46.022Z,28.02
2022-12-07T08:30:12.927Z,28.35
2022-12-07T08:32:42.658Z,27.77
2022-12-07T08:35:09.800Z,28.35
2022-12-07T08:37:37.062Z,26.42
2022-12-07T08:40:06.120Z,29.17
2022-12-07T08:42:38.785Z,27.38
2022-12-07T08:45:08.309Z,26.58
2022-12-07T08:47:38.258Z,26.55
2022-12-07T08:50:08.726Z,26.83
2022-12-07T08:52:38.179Z,26.40
2022-12-07T08:55:07.053Z,24.65
2022-12-07T08:57:36.569Z,25.10
2022-12-07T09:00:05.566Z,24.20
2022-12-07T09:02:33.147Z,25.08
2022-12-07T09:04:59.882Z,23.88
2022-12-07T09:07:27.442Z,24.35
2022-12-07T09:09:54.212Z,24.30
2022-12-07T09:12:20.955Z,24.27
2022-12-07T09:14:47.723Z,22.55
2022-12-07T09:17:14.856Z,21.33
2022-12-07T09:19:43.344Z,21.67
2022-12-07T09:22:10.287Z,22.60
2022-12-07T09:24:36.977Z,20.33
2022-12-07T09:27:03.771Z,19.83
2022-12-07T09:29:30.556Z,21.60
2022-12-07T09:31:57.363Z,20.23
2022-12-07T09:34:24.671Z,22.10
2022-12-07T09:36:51.537Z,19.55
2022-12-07T09:39:18.442Z,18.40
2022-12-07T09:41:46.808Z,19.40
2022-12-07T09:44:19.252Z,17.83
2022-12-07T09:46:46.470Z,16.38
2022-12-07T09:49:18.980Z,15.63
2022-12-07T09:51:45.944Z,17.95
2022-12-07T09:54:17.459Z,15.45
2022-12-07T09:56:45.023Z,14.85
2022-12-07T09:59:18.789Z,15.82
2022-12-07T10:01:48.363Z,16.08
2022-12-07T10:04:17.430Z,15.82
2022-12-07T10:06:44.413Z,14.25
2022-12-07T10:09:13.390Z,15.45
2022-12-07T10:12:01.645Z,14.00
2022-12-07T10:15:05.088Z,14.57
2022-12-07T10:17:32.037Z,14.18
2022-12-07T10:20:24.114Z,14.68
2022-12-07T10:23:19.365Z,13.00
2022-12-07T10:25:46.822Z,13.15
2022-12-07T10:28:17.874Z,13.77
2022-12-07T10:31:16.053Z,13.13
2022-12-07T10:33:54.805Z,12.20
2022-12-07T10:36:33.827Z,12.93
2022-12-07T10:39:11.396Z,12.05
2022-12-07T10:41:57.931Z,11.20
2022-12-07T10:44:30.244Z,12.55
2022-12-07T10:47:02.915Z,12.00
2022-12-07T10:49:48.377Z,12.52
2022-12-07T10:52:19.899Z,11.90
2022-12-07T10:55:11.216Z,12.05
2022-12-07T10:58:01.878Z,11.90
2022-12-07T11:00:38.421Z,11.85
2022-12-07T11:03:20.134Z,11.25
2022-12-07T11:06:04.461Z,10.30
2022-12-07T11:09:04.214Z,10.27
2022-12-07T11:11:34.317Z,10.00
2022-12-07T11:14:10.388Z,9.93
2022-12-07T11:17:00.874Z,8.93
2022-12-07T11:19:42.105Z,8.50
2022-12-07T11:22:28.803Z,8.60
2022-12-07T11:25:03.645Z,9.02
2022-12-07T11:27:36.344Z,7.20
2022-12-07T11:30:09.101Z,6.38
2022-12-07T11:33:02.584Z,6.18
2022-12-07T11:35:45.202Z,7.03
2022-12-07T11:38:31.476Z,6.65
2022-12-07T11:41:14.039Z,7.03
2022-12-07T11:43:52.231Z,6.43
2022-12-07T11:46:19.468Z,6.68
2022-12-07T11:48:53.043Z,6.40
2022-12-07T11:51:22.166Z,5.93
2022-12-07T11:54:01.504Z,6.65
2022-12-07T11:56:30.402Z,6.32
2022-12-07T11:59:37.116Z,5.75
2022-12-07T12:02:15.321Z,6.38
2022-12-07T12:04:55.411Z,5.65
2022-12-07T12:10:24.999Z,6.38
2022-12-07T12:16:27.809Z,5.45
2022-12-07T12:19:06.504Z,7.35
2022-12-07T12:21:34.418Z,6.30
2022-12-07T12:24:29.628Z,6.20
2022-12-07T12:27:16.616Z,7.53
2022-12-07T12:29:44.907Z,7.22
2022-12-07T12:32:19.538Z,7.90
2022-12-07T12:34:50.959Z,6.90
2022-12-07T12:37:42.199Z,8.15
2022-12-07T12:40:18.124Z,7.78
2022-12-07T12:42:49.757Z,8.40
2022-12-07T12:45:23.827Z,8.38
2022-12-07T12:48:03.997Z,8.70
2022-12-07T12:50:38.791Z,7.63
2022-12-07T12:53:26.644Z,7.70
2022-12-07T12:56:30.649Z,9.15
2022-12-07T12:59:26.167Z,7.88
2022-12-07T13:02:06.385Z,8.45
2022-12-07T13:04:48.635Z,7.82
2022-12-07T13:08:01.520Z,9.03
2022-12-07T13:10:31.097Z,8.67
2022-12-07T13:13:14.373Z,9.38
2022-12-07T13:15:52.361Z,9.45
2022-12-07T13:18:34.161Z,10.05
2022-12-07T13:21:01.686Z,9.63
2022-12-07T13:23:46.701Z,9.07
2022-12-07T13:26:31.854Z,8.63
2022-12-07T13:29:10.674Z,9.13
2022-12-07T13:31:39.513Z,9.57
2022-12-07T13:34:34.203Z,9.63
2022-12-07T13:37:15.487Z,10.43
2022-12-07T13:40:26.603Z,9.20
2022-12-07T13:43:05.227Z,9.38
2022-12-07T13:45:49.570Z,10.10
2022-12-07T13:48:35.592Z,9.43
2022-12-07T13:51:04.764Z,8.88
2022-12-07T13:53:31.818Z,8.93
2022-12-07T13:56:02.657Z,9.20
2022-12-07T13:58:32.953Z,8.40
2022-12-07T14:01:00.707Z,8.10
2022-12-07T14:03:34.821Z,7.88
2022-12-07T14:06:28.912Z,5.22
2022-12-07T14:09:10.047Z,4.15
2022-12-07T14:11:38.357Z,3.85
2022-12-07T14:14:06.505Z,3.58
2022-12-07T14:16:36.836Z,4.25
2022-12-07T14:19:06.163Z,5.32
2022-12-07T14:21:35.305Z,5.10
2022-12-07T14:24:10.962Z,4.43
2022-12-07T14:26:40.667Z,3.70
2022-12-07T14:29:39.911Z,3.80
2022-12-07T14:32:29.210Z,3.95
2022-12-07T14:34:57.343Z,3.80
2022-12-07T14:37:24.917Z,4.00
2022-12-07T14:39:51.756Z,4.82
2022-12-07T14:42:18.910Z,5.30
2022-12-07T14:44:45.680Z,4.78
2022-12-07T14:50:03.206Z,6.05
2022-12-07T14:55:24.088Z,7.03
2022-12-07T14:57:50.915Z,6.40
2022-12-07T15:00:19.136Z,6.65
2022-12-07T15:02:47.225Z,7.57
2022-12-07T15:05:16.245Z,7.65
2022-12-07T15:07:44.208Z,7.95
2022-12-07T15:10:31.047Z,9.68
2022-12-07T15:13:21.679Z,9.32
2022-12-07T15:15:50.114Z,8.05
2022-12-07T15:18:18.274Z,8.90
2022-12-07T15:20:45.738Z,9.20
2022-12-07T15:23:13.013Z,10.13
2022-12-07T15:25:47.852Z,10.13
2022-12-07T15:28:15.481Z,9.80
2022-12-07T15:30:44.456Z,9.52
2022-12-07T15:33:13.128Z,10.82
2022-12-07T15:35:45.072Z,11.80
2022-12-07T15:39:05.104Z,12.95
2022-12-07T15:41:19.873Z,12.70
2022-12-07T15:44:05.789Z,9.93
2022-12-07T15:46:38.396Z,10.95
2022-12-07T15:49:07.667Z,11.38
2022-12-07T15:51:34.537Z,11.82
2022-12-07T15:54:03.036Z,12.20
2022-12-07T15:56:29.773Z,11.43
2022-12-07T15:58:57.938Z,11.18
2022-12-07T16:01:24.931Z,11.05
2022-12-07T16:03:51.724Z,11.23
2022-12-07T16:06:19.376Z,10.63
2022-12-07T16:08:47.673Z,11.38
2022-12-07T16:11:15.013Z,10.80
2022-12-07T16:13:41.800Z,12.35
2022-12-07T16:16:14.045Z,11.57
2022-12-07T16:18:41.004Z,10.90
2022-12-07T16:21:08.143Z,12.00
2022-12-07T16:23:35.537Z,12.05
2022-12-07T16:26:22.141Z,12.73
2022-12-07T16:28:54.134Z,12.68
2022-12-07T16:31:23.349Z,13.00
2022-12-07T16:33:51.126Z,13.15
2022-12-07T16:36:39.956Z,12.50
2022-12-07T16:39:06.811Z,14.45
2022-12-07T16:41:34.030Z,14.50
2022-12-07T16:44:06.398Z,14.15
2022-12-07T16:46:37.148Z,12.93
2022-12-07T16:49:04.815Z,13.82
2022-12-07T16:51:32.343Z,12.52
2022-12-07T16:53:59.721Z,14.45
2022-12-07T16:56:27.634Z,12.90
2022-12-07T16:58:55.628Z,13.20
2022-12-07T17:01:23.757Z,13.43
2022-12-07T17:03:51.148Z,13.45
2022-12-07T17:06:20.266Z,11.77
2022-12-07T17:08:49.870Z,12.40
2022-12-07T17:11:28.378Z,12.27
2022-12-07T17:14:30.716Z,13.20
2022-12-07T17:16:57.490Z,12.93
2022-12-07T17:19:24.373Z,12.55
2022-12-07T17:21:51.627Z,13.35
2022-12-07T17:24:18.488Z,12.93
2022-12-07T17:26:46.415Z,13.82
2022-12-07T17:29:15.711Z,14.70
2022-12-07T17:31:47.735Z,14.80
2022-12-07T17:34:17.690Z,15.48
2022-12-07T17:36:45.932Z,14.95
2022-12-07T17:39:16.108Z,14.65
2022-12-07T17:42:02.033Z,14.65
2022-12-07T17:44:29.331Z,14.93
2022-12-07T17:46:58.831Z,15.82
2022-12-07T17:49:27.185Z,16.17
2022-12-07T17:52:12.554Z,15.80
2022-12-07T17:54:39.398Z,15.25
2022-12-07T17:57:06.139Z,15.63
2022-12-07T17:59:32.863Z,16.20
2022-12-07T18:01:59.718Z,16.05
2022-12-07T18:04:29.215Z,15.85
2022-12-07T18:06:56.016Z,15.45
2022-12-07T18:09:23.521Z,15.15
2022-12-07T18:11:50.555Z,15.02
2022-12-07T18:14:17.426Z,15.13
2022-12-07T18:16:45.036Z,15.10
2022-12-07T18:19:14.537Z,14.85
2022-12-07T18:21:41.708Z,15.40
2022-12-07T18:24:11.879Z,14.32
2022-12-07T18:26:39.291Z,13.75
2022-12-07T18:29:07.355Z,14.25
2022-12-07T18:31:35.193Z,14.63
2022-12-07T18:34:04.775Z,14.07
2022-12-07T18:36:32.035Z,14.45
2022-12-07T18:38:59.060Z,13.68
2022-12-07T18:41:25.917Z,13.68
2022-12-07T18:43:52.742Z,14.80
2022-12-07T18:46:21.505Z,13.45
2022-12-07T18:48:52.062Z,14.20
2022-12-07T18:51:20.576Z,13.25
2022-12-07T18:53:47.530Z,12.55
2022-12-07T18:56:15.894Z,14.18
2022-12-07T18:59:03.042Z,13.02
2022-12-07T19:01:31.129Z,13.52
2022-12-07T19:03:59.112Z,13.82
2022-12-07T19:06:26.760Z,13.70
2022-12-07T19:08:54.825Z,13.40
2022-12-07T19:11:42.361Z,14.15
2022-12-07T19:14:09.329Z,14.18
2022-12-07T19:16:36.915Z,13.63
2022-12-07T19:19:04.777Z,13.82
2022-12-07T19:21:31.773Z,13.73
2022-12-07T19:23:58.514Z,13.23
2022-12-07T19:26:25.567Z,13.80
2022-12-07T19:28:52.403Z,14.23
2022-12-07T19:31:19.190Z,16.45
2022-12-07T19:33:46.441Z,14.15
2022-12-07T19:36:13.243Z,13.52
2022-12-07T19:38:40.082Z,12.93
2022-12-07T19:41:32.739Z,13.40
2022-12-07T19:44:04.559Z,13.20
2022-12-07T19:46:32.116Z,13.30
2022-12-07T19:49:00.752Z,12.93
2022-12-07T19:51:28.973Z,14.05
2022-12-07T19:53:58.067Z,13.88
2022-12-07T19:56:25.934Z,12.93
2022-12-07T19:58:53.077Z,14.35
2022-12-07T20:01:20.363Z,13.98
2022-12-07T20:03:47.380Z,13.48
2022-12-07T20:06:17.936Z,13.38
2022-12-07T20:08:46.168Z,13.00
2022-12-07T20:11:32.777Z,13.98
2022-12-07T20:14:00.010Z,14.00
2022-12-07T20:16:27.038Z,13.35
2022-12-07T20:18:57.832Z,14.57
2022-12-07T20:21:25.454Z,13.68
2022-12-07T20:23:52.753Z,12.95
2022-12-07T20:26:20.375Z,14.20
2022-12-07T20:28:47.352Z,14.35
2022-12-07T20:31:16.294Z,14.82
2022-12-07T20:33:46.913Z,15.50
2022-12-07T20:36:16.375Z,15.82
2022-12-07T20:38:44.684Z,14.63
2022-12-07T20:41:33.082Z,15.57
2022-12-07T20:44:00.968Z,15.27
2022-12-07T20:46:28.309Z,16.10
2022-12-07T20:48:57.996Z,15.25
2022-12-07T20:51:24.810Z,14.68
2022-12-07T20:53:51.637Z,15.73
2022-12-07T20:56:20.816Z,16.38
2022-12-07T20:58:47.592Z,17.00
2022-12-07T21:01:14.684Z,15.18
2022-12-07T21:03:41.877Z,14.85
2022-12-07T21:06:12.504Z,15.07
2022-12-07T21:08:39.659Z,14.57
2022-12-07T21:11:09.586Z,13.82
2022-12-07T21:13:36.396Z,15.18
2022-12-07T21:16:11.518Z,14.13
2022-12-07T21:18:38.684Z,14.60
2022-12-07T21:21:07.339Z,14.82
2022-12-07T21:23:34.748Z,16.30
2022-12-07T21:26:01.719Z,16.00
2022-12-07T21:28:28.491Z,15.68
2022-12-07T21:31:13.989Z,15.70
2022-12-07T21:33:44.006Z,15.18
2022-12-07T21:36:16.392Z,14.98
2022-12-07T21:38:43.268Z,14.07
2022-12-07T21:41:20.099Z,14.57
2022-12-07T21:43:47.865Z,15.40
2022-12-07T21:46:16.728Z,14.48
2022-12-07T21:48:43.683Z,14.80
2022-12-07T21:51:13.079Z,14.48
2022-12-07T21:53:41.596Z,14.38
2022-12-07T21:56:17.276Z,14.35
2022-12-07T21:58:44.466Z,14.32
2022-12-07T22:01:24.490Z,15.63
2022-12-07T22:03:52.189Z,13.98
2022-12-07T22:06:22.045Z,14.32
2022-12-07T22:08:49.340Z,14.27
2022-12-07T22:11:16.831Z,14.48
2022-12-07T22:14:09.636Z,14.13
2022-12-07T22:16:37.382Z,14.13
2022-12-07T22:19:04.398Z,14.75
2022-12-07T22:21:32.071Z,13.95
2022-12-07T22:23:58.805Z,15.07
2022-12-07T22:26:26.419Z,13.68
2022-12-07T22:28:53.575Z,13.00
2022-12-07T22:31:21.232Z,14.68
2022-12-07T22:33:48.570Z,15.02
2022-12-07T22:36:15.636Z,14.68
2022-12-07T22:38:43.187Z,13.15
2022-12-07T22:41:12.645Z,12.93
2022-12-07T22:43:39.955Z,13.73
2022-12-07T22:46:07.304Z,13.50
2022-12-07T22:48:34.335Z,14.05
2022-12-07T22:51:01.559Z,14.00
2022-12-07T22:53:28.772Z,13.90
2022-12-07T22:55:55.648Z,13.88
2022-12-07T22:58:22.951Z,13.27
2022-12-07T23:00:49.893Z,13.57
2022-12-07T23:03:16.931Z,13.07
2022-12-07T23:05:46.050Z,13.10
2022-12-07T23:08:13.081Z,12.48
2022-12-07T23:10:44.508Z,12.98
2022-12-07T23:13:36.754Z,12.10
2022-12-07T23:16:15.314Z,13.55
2022-12-07T23:18:42.916Z,13.30
2022-12-07T23:21:09.838Z,13.48
2022-12-07T23:23:37.149Z,12.90
2022-12-07T23:26:09.074Z,12.90
2022-12-07T23:28:36.670Z,13.57
2022-12-07T23:31:12.600Z,13.38
2022-12-07T23:33:40.166Z,13.40
2022-12-07T23:36:12.236Z,13.60
2022-12-07T23:38:40.840Z,12.90
2022-12-07T23:41:10.337Z,12.48
2022-12-07T23:43:38.618Z,13.38
2022-12-07T23:46:14.327Z,13.68
2022-12-07T23:48:41.217Z,12.15
2022-12-07T23:51:09.604Z,12.90
2022-12-07T23:53:38.574Z,12.60
2022-12-07T23:56:06.297Z,12.50
2022-12-07T23:58:33.572Z,13.40
